Time;durP1;ratioP1;P1;durP2;ratioP2;P2;SDS_P1;SDS_P2;PMS_P1;PMS_P2;Temp;Humidity;BMP_temperature;BMP_pressure;BME280_temperature;BME280_humidity;BME280_pressure;Samples;Min_cycle;Max_cycle;Signal;HPM_P1;HPM_P2
2023/03/10 00:06:21;;;;;;;83.70;46.40;;;;;;;3.27;93.92;96828.70;435349;1256;107550;-39
2023/03/10 00:16:30;;;;;;;91.70;48.60;;;;;;;3.38;94.28;96825.54;435935;1254;98012;-39
2023/03/10 00:36:44;;;;;;;73.10;44.40;;;;;;;3.69;94.96;96807.09;435533;1253;98807;-39
2023/03/10 00:46:51;;;;;;;63.00;42.30;;;;;;;3.94;95.28;96799.72;436186;1253;112141;-39
2023/03/10 00:56:58;;;;;;;60.00;37.80;;;;;;;4.26;95.52;96787.65;435094;1257;108634;-40
2023/03/10 01:07:05;;;;;;;54.80;35.40;;;;;;;4.59;95.79;96773.83;435025;1256;99224;-40
2023/03/10 01:17:12;;;;;;;47.20;29.00;;;;;;;4.79;95.88;96757.05;436104;1257;108144;-40
2023/03/10 01:27:19;;;;;;;32.20;20.70;;;;;;;4.94;95.98;96745.84;435757;1254;99218;-40
2023/03/10 01:37:26;;;;;;;23.30;15.30;;;;;;;5.22;96.16;96737.82;435194;1256;111774;-40
2023/03/10 01:47:33;;;;;;;20.20;12.00;;;;;;;5.58;96.37;96727.54;435167;1256;108226;-39
2023/03/10 01:57:43;;;;;;;14.70;9.10;;;;;;;5.78;95.98;96722.52;435330;1256;99313;-40
2023/03/10 02:07:50;;;;;;;14.50;7.90;;;;;;;5.97;96.07;96710.80;436796;1253;108116;-40
2023/03/10 02:17:58;;;;;;;13.80;9.10;;;;;;;6.11;95.89;96706.79;435022;1253;99217;-40
2023/03/10 02:28:08;;;;;;;8.30;5.70;;;;;;;6.18;95.65;96702.89;435832;1250;112030;-35
2023/03/10 02:38:16;;;;;;;10.40;6.00;;;;;;;6.20;95.55;96696.02;435193;1254;107680;-41
2023/03/10 02:48:22;;;;;;;14.40;6.00;;;;;;;6.10;95.29;96696.23;435180;1254;98036;-41
2023/03/10 02:58:33;;;;;;;5.90;4.20;;;;;;;5.99;95.04;96695.19;435201;1265;107740;-40
2023/03/10 03:08:41;;;;;;;6.90;3.90;;;;;;;5.97;94.92;96684.15;435209;1255;99222;-40
2023/03/10 03:18:48;;;;;;;6.30;3.60;;;;;;;5.97;94.90;96678.90;435144;1258;110296;-40
2023/03/10 03:39:02;;;;;;;7.70;3.10;;;;;;;5.97;94.75;96675.23;434850;1266;465951;-41
2023/03/10 03:49:09;;;;;;;4.50;2.70;;;;;;;5.99;94.79;96661.71;435184;1258;108114;-41
2023/03/10 03:59:16;;;;;;;6.50;3.20;;;;;;;5.90;94.65;96642.08;435185;1266;99260;-40
2023/03/10 04:09:24;;;;;;;5.80;2.50;;;;;;;5.91;94.63;96631.08;435240;1266;111815;-41
2023/03/10 04:19:31;;;;;;;5.00;2.40;;;;;;;5.99;94.46;96612.03;435264;1254;109230;-42
2023/03/10 04:29:39;;;;;;;5.80;4.10;;;;;;;6.05;94.31;96593.88;435123;1266;99241;-39
2023/03/10 04:39:46;;;;;;;13.10;3.40;;;;;;;6.09;94.18;96578.52;435232;1266;108115;-40
2023/03/10 04:49:52;;;;;;;7.10;2.80;;;;;;;6.09;93.97;96557.63;434975;1258;99224;-39
2023/03/10 05:00:00;;;;;;;6.30;3.60;;;;;;;6.02;93.67;96548.45;435205;1257;111523;-39
2023/03/10 05:10:10;;;;;;;10.10;3.90;;;;;;;5.89;93.60;96545.02;435223;1257;107896;-40
2023/03/10 05:20:18;;;;;;;6.40;4.00;;;;;;;5.74;93.69;96539.87;435397;1253;98440;-39
2023/03/10 05:30:25;;;;;;;5.60;2.80;;;;;;;5.78;93.50;96523.95;435161;1257;107339;-41
2023/03/10 05:40:32;;;;;;;10.20;4.70;;;;;;;5.88;93.51;96506.67;435180;1256;98021;-39
2023/03/10 05:50:39;;;;;;;10.40;3.90;;;;;;;6.01;93.52;96490.27;435273;1253;111760;-40
2023/03/10 06:00:47;;;;;;;10.40;4.00;;;;;;;6.23;93.33;96492.13;435210;1257;107967;-40
2023/03/10 06:10:55;;;;;;;11.80;4.40;;;;;;;6.46;93.25;96492.25;435417;1254;99087;-39
2023/03/10 06:21:04;;;;;;;12.90;4.20;;;;;;;6.77;93.40;96476.78;435165;1256;106802;-40
2023/03/10 06:31:16;;;;;;;6.50;4.20;;;;;;;7.42;93.13;96458.05;435305;1256;99225;-39
2023/03/10 06:41:24;;;;;;;9.30;4.80;;;;;;;7.76;92.21;96455.30;435271;1256;112073;-39
2023/03/10 06:51:31;;;;;;;14.90;6.20;;;;;;;7.76;91.86;96459.89;435246;1254;107534;-39
2023/03/10 07:11:44;;;;;;;11.20;4.70;;;;;;;8.60;90.95;96454.99;435193;1256;108837;-40
2023/03/10 07:21:51;;;;;;;12.40;6.10;;;;;;;8.67;90.56;96452.91;435288;1253;99237;-39
2023/03/10 07:31:58;;;;;;;11.20;4.70;;;;;;;8.73;90.31;96453.26;435157;1256;111488;-40
2023/03/10 07:42:06;;;;;;;6.90;3.70;;;;;;;9.25;90.09;96447.55;435176;1253;107667;-40
2023/03/10 07:52:13;;;;;;;7.60;4.80;;;;;;;9.87;89.72;96433.80;435273;1256;98586;-41
2023/03/10 08:02:20;;;;;;;10.10;4.60;;;;;;;10.71;89.46;96419.28;435241;1252;108311;-40
2023/03/10 08:12:29;;;;;;;9.70;4.50;;;;;;;11.11;87.86;96405.54;435299;1254;99247;-39
2023/03/10 08:22:36;;;;;;;9.60;4.00;;;;;;;11.25;86.62;96404.32;435128;1252;110992;-40
2023/03/10 08:32:44;;;;;;;11.20;3.90;;;;;;;11.87;84.99;96398.02;435263;1256;108458;-40
2023/03/10 08:42:52;;;;;;;6.00;3.40;;;;;;;12.07;82.63;96392.91;435334;1253;97989;-41
2023/03/10 08:52:59;;;;;;;8.70;3.70;;;;;;;12.46;82.09;96389.51;435084;1256;109505;-39
2023/03/10 09:03:07;;;;;;;10.30;4.60;;;;;;;12.70;80.58;96397.81;435130;1256;99125;-40
2023/03/10 09:13:15;;;;;;;4.60;3.00;;;;;;;12.67;79.11;96407.20;435327;1253;111356;-41
2023/03/10 09:23:22;;;;;;;6.40;3.00;;;;;;;12.79;78.15;96415.07;435251;1253;108331;-40
2023/03/10 09:33:31;;;;;;;5.60;3.50;;;;;;;12.60;77.88;96411.02;435261;1253;98047;-41
2023/03/10 09:43:36;;;;;;;9.90;4.70;;;;;;;12.57;78.04;96410.27;435280;1256;108964;-41
2023/03/10 09:53:47;;;;;;;9.10;3.10;;;;;;;13.12;76.71;96407.25;435230;1253;97958;-40
2023/03/10 10:03:59;;;;;;;5.50;2.90;;;;;;;13.76;75.95;96393.39;435211;1256;112472;-41
2023/03/10 10:14:17;;;;;;;5.50;2.80;;;;;;;14.05;73.13;96392.38;435199;1256;108544;-41
2023/03/10 10:24:35;;;;;;;8.60;3.50;;;;;;;13.90;71.68;96385.06;435265;1256;99212;-41
2023/03/10 10:34:45;;;;;;;10.00;4.90;;;;;;;13.40;71.39;96385.94;435190;1256;106806;-40
2023/03/10 10:44:51;;;;;;;12.00;4.50;;;;;;;13.23;71.63;96380.85;435185;1253;97996;-41
2023/03/10 10:55:01;;;;;;;9.90;3.80;;;;;;;13.72;71.73;96372.34;435207;1252;112154;-42
2023/03/10 11:05:18;;;;;;;7.90;4.20;;;;;;;14.19;70.01;96348.64;435156;1256;108596;-41
2023/03/10 11:15:28;;;;;;;6.30;4.20;;;;;;;14.27;69.24;96335.25;435193;1256;98022;-41
2023/03/10 11:25:35;;;;;;;7.90;4.30;;;;;;;14.19;69.61;96325.92;435070;1253;108074;-41
2023/03/10 11:45:53;;;;;;;5.20;3.50;;;;;;;14.28;68.13;96304.69;435333;1253;110509;-41
2023/03/10 11:55:58;;;;;;;;;;;;;;;14.50;67.19;96298.94;435200;1256;107822;-41
2023/03/10 12:06:07;;;;;;;9.60;3.00;;;;;;;14.69;67.10;96292.29;435573;1253;99386;-40
2023/03/10 12:16:14;;;;;;;2.80;2.50;;;;;;;15.09;65.77;96278.84;436205;1256;108237;-41
2023/03/10 12:26:54;;;;;;;4.40;2.50;;;;;;;15.36;63.79;96263.98;435250;1252;98585;-41
2023/03/10 12:37:10;;;;;;;4.80;1.90;;;;;;;15.57;63.83;96255.95;435219;1256;111147;-41
2023/03/10 12:47:43;;;;;;;4.60;2.00;;;;;;;15.35;61.64;96253.29;435168;1256;107473;-40
2023/03/10 12:57:56;;;;;;;5.70;2.30;;;;;;;15.12;60.79;96260.64;435197;1252;98434;-40
2023/03/10 13:08:05;;;;;;;3.80;2.60;;;;;;;15.08;61.20;96263.65;435220;1256;108915;-42
2023/03/10 13:18:10;;;;;;;;;;;;;;;14.79;61.77;96265.43;435240;1256;97938;-39
2023/03/10 13:28:17;;;;;;;8.00;3.90;;;;;;;14.83;62.98;96262.96;435331;1254;111968;-41
2023/03/10 13:38:24;;;;;;;4.90;3.30;;;;;;;14.90;62.03;96251.19;435206;1256;107107;-40
2023/03/10 13:48:34;;;;;;;6.40;3.00;;;;;;;14.84;61.40;96259.42;435314;1254;99234;-40
2023/03/10 13:58:41;;;;;;;4.50;2.40;;;;;;;14.65;61.30;96251.98;435127;1256;106754;-41
2023/03/10 14:08:49;;;;;;;4.10;2.70;;;;;;;14.54;62.05;96242.75;435237;1256;98347;-40
2023/03/10 14:18:55;;;;;;;6.20;2.90;;;;;;;14.32;61.45;96246.63;435142;1256;112279;-40
2023/03/10 14:29:01;;;;;;;8.20;3.60;;;;;;;14.07;61.81;96233.14;435148;1253;109194;-40
2023/03/10 14:39:08;;;;;;;5.80;3.50;;;;;;;14.02;62.42;96215.23;435236;1253;99323;-39
2023/03/10 14:49:17;;;;;;;6.80;4.40;;;;;;;13.88;62.89;96206.44;435231;1256;107514;-40
2023/03/10 15:09:34;;;;;;;13.90;7.00;;;;;;;13.47;63.97;96189.20;435242;1253;111079;-40
2023/03/10 15:19:41;;;;;;;23.60;10.00;;;;;;;13.40;64.47;96186.20;435209;1254;108062;-40
2023/03/10 15:29:49;;;;;;;22.20;11.00;;;;;;;13.36;64.94;96174.64;435141;1256;98480;-41
2023/03/10 15:39:56;;;;;;;17.90;11.10;;;;;;;13.31;65.20;96166.61;434900;1256;372852;-41
2023/03/10 15:50:04;;;;;;;18.80;7.10;;;;;;;13.23;65.45;96152.02;435326;1253;99313;-40
2023/03/10 16:00:15;;;;;;;16.50;6.60;;;;;;;13.06;65.40;96147.30;435166;1253;112711;-40
2023/03/10 16:10:23;;;;;;;16.40;8.90;;;;;;;12.83;65.71;96128.85;435089;1252;108167;-40
2023/03/10 16:20:29;;;;;;;19.40;9.90;;;;;;;12.65;65.84;96119.55;435262;1256;99211;-43
2023/03/10 16:30:36;;;;;;;25.70;13.10;;;;;;;12.46;66.00;96111.02;435203;1256;107657;-41
2023/03/10 16:40:48;;;;;;;35.50;15.50;;;;;;;12.24;66.17;96113.55;435111;1256;99214;-41
2023/03/10 16:50:57;;;;;;;35.90;16.30;;;;;;;11.95;66.35;96110.86;435161;1256;110388;-40
2023/03/10 17:01:04;;;;;;;37.00;17.00;;;;;;;11.65;66.57;96118.34;435052;1253;106355;-41
2023/03/10 17:11:16;;;;;;;35.70;18.40;;;;;;;11.29;66.78;96116.94;435226;1253;99244;-42
2023/03/10 17:21:26;;;;;;;38.80;20.30;;;;;;;10.96;66.90;96122.71;435154;1252;106748;-41
2023/03/10 17:31:32;;;;;;;46.70;25.50;;;;;;;10.71;67.38;96131.88;435155;1256;98917;-40
2023/03/10 17:41:40;;;;;;;56.50;27.90;;;;;;;10.43;67.66;96134.20;435168;1256;111614;-40
2023/03/10 17:51:46;;;;;;;54.80;32.20;;;;;;;10.17;68.05;96135.65;435151;1256;107624;-41
2023/03/10 18:01:53;;;;;;;68.10;38.30;;;;;;;9.86;68.34;96128.86;435162;1254;97987;-39
2023/03/10 18:11:59;;;;;;;80.10;44.60;;;;;;;9.54;68.75;96122.69;435318;1256;109603;-40
2023/03/10 18:22:08;;;;;;;77.20;42.20;;;;;;;9.45;69.16;96115.69;435148;1253;99219;-40
2023/03/10 18:32:15;;;;;;;68.30;36.80;;;;;;;9.47;69.66;96114.34;435202;1256;112499;-40
2023/03/10 18:42:22;;;;;;;79.50;45.40;;;;;;;9.56;70.11;96106.38;435165;1254;107282;-40
2023/03/10 18:52:31;;;;;;;79.00;43.90;;;;;;;9.59;70.43;96091.55;435155;1253;99329;-40
2023/03/10 19:02:38;;;;;;;78.50;42.80;;;;;;;9.55;70.71;96090.50;435284;1256;107479;-41
2023/03/10 19:12:45;;;;;;;64.10;36.30;;;;;;;9.55;71.13;96094.71;435201;1256;98373;-41
2023/03/10 19:22:52;;;;;;;75.70;38.10;;;;;;;9.59;71.35;96089.44;435218;1253;111314;-41
2023/03/10 19:33:00;;;;;;;63.60;33.90;;;;;;;9.68;71.51;96081.45;435154;1254;108574;-40
2023/03/10 19:43:08;;;;;;;66.20;32.30;;;;;;;9.77;71.78;96078.33;434984;1256;99214;-40
2023/03/10 19:53:15;;;;;;;60.10;32.30;;;;;;;9.83;72.07;96072.42;435163;1256;108914;-39
2023/03/10 20:03:21;;;;;;;55.00;29.90;;;;;;;9.87;72.38;96071.35;435103;1253;99359;-40
2023/03/10 20:13:29;;;;;;;40.70;23.90;;;;;;;9.85;72.66;96073.07;435196;1261;110986;-41
2023/03/10 20:23:37;;;;;;;49.10;25.40;;;;;;;9.83;72.73;96083.66;435046;1254;107644;-40
2023/03/10 20:33:44;;;;;;;53.10;23.50;;;;;;;9.86;73.13;96074.76;435131;1266;99239;-41
2023/03/10 20:53:58;;;;;;;56.90;32.00;;;;;;;9.72;73.28;96060.91;436826;1256;98670;-40
2023/03/10 21:04:04;;;;;;;55.20;31.40;;;;;;;9.41;73.42;96050.23;435257;1256;111686;-40
2023/03/10 21:14:11;;;;;;;53.90;31.30;;;;;;;9.03;73.53;96048.59;434999;1266;107312;-39
2023/03/10 21:24:19;;;;;;;73.20;38.90;;;;;;;8.74;73.84;96042.60;434987;1253;99230;-41
2023/03/10 21:34:27;;;;;;;65.60;34.00;;;;;;;8.63;74.24;96032.35;435060;1256;107343;-40
2023/03/10 21:44:34;;;;;;;49.30;27.50;;;;;;;8.60;74.71;96020.90;435677;1256;99243;-41
2023/03/10 21:54:42;;;;;;;49.80;29.40;;;;;;;8.61;75.07;96005.09;437213;1266;111695;-40
2023/03/10 22:04:50;;;;;;;56.60;31.00;;;;;;;8.50;75.21;96001.20;437348;1266;108588;-41
2023/03/10 22:14:57;;;;;;;56.90;34.50;;;;;;;8.24;75.44;96004.29;437604;1256;118542;-41
2023/03/10 22:25:06;;;;;;;56.70;30.20;;;;;;;7.95;75.62;95989.81;438808;1257;109508;-41
2023/03/10 22:35:13;;;;;;;45.60;25.30;;;;;;;7.79;75.93;95978.89;438431;1253;99212;-40
2023/03/10 22:45:24;;;;;;;44.50;24.40;;;;;;;7.78;76.00;95968.06;438527;1256;112148;-41
2023/03/10 23:05:39;;;;;;;51.80;26.80;;;;;;;7.57;76.05;95954.42;436683;1255;99212;-41
2023/03/10 23:15:47;;;;;;;39.40;22.90;;;;;;;7.25;76.38;95956.96;435069;1265;108514;-40
2023/03/10 23:25:54;;;;;;;45.30;24.70;;;;;;;7.05;76.53;95952.89;435173;1257;99217;-41
2023/03/10 23:36:02;;;;;;;38.10;22.10;;;;;;;6.91;76.57;95945.73;435101;1254;111816;-41
2023/03/10 23:46:09;;;;;;;34.60;19.10;;;;;;;6.91;76.97;95947.30;435082;1265;109591;-41
2023/03/10 23:56:17;;;;;;;36.00;18.70;;;;;;;7.11;77.36;95938.08;435220;1264;98304;-39
